Time;durP1;ratioP1;P1;durP2;ratioP2;P2;SDS_P1;SDS_P2;PMS_P1;PMS_P2;Temp;Humidity;BMP_temperature;BMP_pressure;BME280_temperature;BME280_humidity;BME280_pressure;Samples;Min_cycle;Max_cycle;Signal;HPM_P1;HPM_P2
2022/12/14 00:00:00;;;;;;;8.38;4.95;;;-3.40;99.90;;;;;;4900053;29;20107;-70
2022/12/14 00:02:25;;;;;;;8.00;4.78;;;-3.40;99.90;;;;;;4885365;29;20063;-70
2022/12/14 00:04:51;;;;;;;8.02;5.03;;;-3.40;99.90;;;;;;4884054;29;20047;-69
2022/12/14 00:07:17;;;;;;;8.38;4.93;;;-3.50;99.90;;;;;;4899624;29;20099;-70
2022/12/14 00:09:43;;;;;;;8.52;4.80;;;-3.50;99.90;;;;;;4898369;29;20079;-70
2022/12/14 00:12:08;;;;;;;8.20;4.55;;;-3.50;99.90;;;;;;4884944;29;20079;-70
2022/12/14 00:14:34;;;;;;;8.88;5.60;;;-3.50;99.90;;;;;;4877972;29;20040;-71
2022/12/14 00:17:00;;;;;;;9.35;5.40;;;-3.50;99.90;;;;;;4897921;29;20106;-70
2022/12/14 00:19:25;;;;;;;9.23;6.13;;;-3.50;99.90;;;;;;4897837;29;20187;-70
2022/12/14 00:21:51;;;;;;;9.38;5.63;;;-3.60;99.90;;;;;;4884060;29;20386;-71
2022/12/14 00:24:17;;;;;;;7.50;4.60;;;-3.60;99.90;;;;;;4883698;29;20052;-71
2022/12/14 00:26:42;;;;;;;9.45;5.53;;;-3.70;99.90;;;;;;4883478;29;20315;-71
2022/12/14 00:29:08;;;;;;;8.40;4.93;;;-3.70;99.90;;;;;;4852750;29;20131;-70
2022/12/14 00:31:35;;;;;;;9.57;5.43;;;-3.80;99.90;;;;;;4868496;29;20036;-71
2022/12/14 00:34:00;;;;;;;8.95;5.10;;;-3.90;99.90;;;;;;4899699;29;20059;-71
2022/12/14 00:36:26;;;;;;;9.02;5.60;;;-3.90;99.90;;;;;;4898924;29;20135;-71
2022/12/14 00:38:52;;;;;;;7.43;4.38;;;-4.00;99.90;;;;;;4899909;29;20054;-70
2022/12/14 00:41:18;;;;;;;8.07;5.38;;;-4.00;99.90;;;;;;4897355;29;20508;-71
2022/12/14 00:43:43;;;;;;;8.63;5.13;;;-4.10;99.90;;;;;;4877164;29;20059;-71
2022/12/14 00:46:09;;;;;;;7.05;4.45;;;-4.10;99.90;;;;;;4868825;29;20562;-70
2022/12/14 00:48:35;;;;;;;9.05;4.90;;;-4.20;99.90;;;;;;4868157;29;20080;-71
2022/12/14 00:51:01;;;;;;;7.93;4.80;;;-4.20;99.90;;;;;;4884010;29;20438;-71
2022/12/14 00:53:27;;;;;;;9.38;5.45;;;-4.30;99.90;;;;;;4899361;29;20460;-71
2022/12/14 00:55:52;;;;;;;8.82;5.32;;;-4.30;99.90;;;;;;4898371;29;20040;-71
2022/12/14 00:58:20;;;;;;;10.85;6.13;;;-4.40;99.90;;;;;;4898750;29;20040;-71
2022/12/14 01:00:47;;;;;;;12.48;7.43;;;-4.50;99.90;;;;;;4883551;29;20433;-70
2022/12/14 01:03:13;;;;;;;;;;;-4.60;99.90;;;;;;4867278;29;20043;-70
2022/12/14 01:05:39;;;;;;;12.07;6.75;;;-4.70;99.90;;;;;;4898065;29;19925;-70
2022/12/14 01:08:05;;;;;;;11.07;5.95;;;-4.80;99.90;;;;;;4898172;29;20510;-72
2022/12/14 01:10:31;;;;;;;10.35;6.60;;;-4.90;99.90;;;;;;4895607;29;20048;-70
2022/12/14 01:12:56;;;;;;;10.25;5.72;;;-4.90;99.90;;;;;;4888888;29;20120;-70
2022/12/14 01:15:22;;;;;;;12.70;7.20;;;-4.90;99.90;;;;;;4880724;29;20059;-70
2022/12/14 01:17:50;;;;;;;13.77;8.07;;;-5.00;99.90;;;;;;4882051;29;20066;-70
2022/12/14 01:20:16;;;;;;;15.88;8.68;;;-5.00;99.90;;;;;;4898189;29;20102;-70
2022/12/14 01:22:42;;;;;;;15.10;8.55;;;-5.10;99.90;;;;;;4897067;29;20076;-70
2022/12/14 01:25:08;;;;;;;16.75;9.40;;;-5.10;99.90;;;;;;4897201;29;20044;-70
2022/12/14 01:27:34;;;;;;;;;;;-5.20;99.90;;;;;;4895180;29;20099;-71
2022/12/14 01:30:00;;;;;;;16.30;8.32;;;-5.20;99.90;;;;;;4892665;29;19919;-70
2022/12/14 01:32:25;;;;;;;14.07;8.10;;;-5.30;99.90;;;;;;4881076;29;20151;-71
2022/12/14 01:34:51;;;;;;;12.75;7.53;;;-5.30;99.90;;;;;;4878288;29;20570;-72
2022/12/14 01:37:17;;;;;;;19.17;10.63;;;-5.40;99.90;;;;;;4897647;29;20068;-71
2022/12/14 01:39:42;;;;;;;22.30;10.85;;;-5.40;99.90;;;;;;4880903;29;20036;-72
2022/12/14 01:42:13;;;;;;;21.30;10.48;;;-5.40;99.90;;;;;;4881800;29;20048;-72
2022/12/14 01:44:38;;;;;;;16.45;9.00;;;-5.50;99.90;;;;;;4896279;29;20068;-71
2022/12/14 01:47:14;;;;;;;14.10;8.40;;;-5.50;99.90;;;;;;4880358;29;20486;-71
2022/12/14 01:50:03;;;;;;;17.13;8.77;;;-5.50;99.90;;;;;;4897182;29;20087;-71
2022/12/14 01:52:45;;;;;;;16.45;9.32;;;-5.60;99.90;;;;;;4880708;29;20154;-71
2022/12/14 01:55:36;;;;;;;15.18;8.55;;;-5.70;99.90;;;;;;4879330;29;20044;-72
2022/12/14 01:58:07;;;;;;;12.02;6.97;;;-5.80;99.90;;;;;;4880074;29;20052;-71
2022/12/14 02:00:33;;;;;;;14.60;8.38;;;-5.80;99.90;;;;;;4882220;29;20131;-71
2022/12/14 02:03:07;;;;;;;9.20;5.43;;;-5.80;99.90;;;;;;4891796;29;20048;-71
2022/12/14 02:05:36;;;;;;;12.02;6.63;;;-5.80;99.90;;;;;;4877598;29;20040;-71
2022/12/14 02:08:03;;;;;;;11.43;6.45;;;-5.80;99.90;;;;;;4882254;29;20082;-71
2022/12/14 02:10:31;;;;;;;9.25;5.43;;;-5.80;99.90;;;;;;4895265;29;20558;-71
2022/12/14 02:13:05;;;;;;;8.60;4.60;;;-5.90;99.90;;;;;;4881902;29;20106;-71
2022/12/14 02:15:33;;;;;;;9.85;5.63;;;-5.90;99.90;;;;;;4896724;29;20060;-71
2022/12/14 02:18:02;;;;;;;8.65;5.13;;;-6.00;99.90;;;;;;4896895;29;20056;-70
2022/12/14 02:20:46;;;;;;;9.43;5.10;;;-6.00;99.90;;;;;;4897590;29;20452;-70
2022/12/14 02:23:50;;;;;;;8.45;4.53;;;-6.10;99.90;;;;;;4881297;29;20052;-71
2022/12/14 02:26:43;;;;;;;7.22;4.50;;;-6.10;99.90;;;;;;4896537;29;20375;-70
2022/12/14 02:29:39;;;;;;;8.70;4.90;;;-6.20;99.90;;;;;;4895810;29;20374;-71
2022/12/14 02:32:13;;;;;;;7.75;5.00;;;-6.20;99.90;;;;;;4878688;29;20052;-70
2022/12/14 02:34:54;;;;;;;9.63;5.05;;;-6.30;99.90;;;;;;4880897;29;20585;-71
2022/12/14 02:37:41;;;;;;;9.18;5.40;;;-6.30;99.90;;;;;;4896938;29;20044;-71
2022/12/14 02:40:27;;;;;;;10.52;5.55;;;-6.30;99.90;;;;;;4896598;29;20055;-70
2022/12/14 02:43:17;;;;;;;7.82;4.85;;;-6.30;99.90;;;;;;4910731;29;20099;-70
2022/12/14 02:45:54;;;;;;;8.57;4.78;;;-6.30;99.90;;;;;;4898020;29;20098;-70
2022/12/14 02:48:35;;;;;;;10.98;5.15;;;-6.30;99.90;;;;;;4894443;29;20062;-70
2022/12/14 02:51:26;;;;;;;10.43;5.07;;;-6.30;99.90;;;;;;4894268;29;20127;-70
2022/12/14 02:54:00;;;;;;;10.55;6.15;;;-6.40;99.90;;;;;;4898229;29;20052;-70
2022/12/14 02:56:36;;;;;;;11.23;6.45;;;-6.40;99.90;;;;;;4915947;29;20079;-71
2022/12/14 02:59:05;;;;;;;11.50;6.00;;;-6.50;99.90;;;;;;4900956;29;20067;-71
2022/12/14 03:01:33;;;;;;;11.43;6.15;;;-6.50;99.90;;;;;;4900161;29;20081;-70
2022/12/14 03:03:59;;;;;;;10.82;5.20;;;-6.60;99.90;;;;;;4900805;29;20052;-71
2022/12/14 03:06:25;;;;;;;9.77;5.30;;;-6.60;99.90;;;;;;4881736;29;20230;-71
2022/12/14 03:08:59;;;;;;;11.35;6.40;;;-6.60;99.90;;;;;;4899888;29;20554;-70
2022/12/14 03:11:34;;;;;;;10.55;5.85;;;-6.60;99.90;;;;;;4901010;29;20063;-71
2022/12/14 03:14:27;;;;;;;11.98;6.43;;;-6.70;99.90;;;;;;4890077;29;20051;-71
2022/12/14 03:16:59;;;;;;;12.52;6.38;;;-6.70;99.90;;;;;;4898051;29;20043;-71
2022/12/14 03:19:30;;;;;;;13.00;7.32;;;-6.70;99.90;;;;;;4902081;29;20773;-70
2022/12/14 03:22:13;;;;;;;13.73;7.88;;;-6.70;99.90;;;;;;4898709;29;20060;-70
2022/12/14 03:24:51;;;;;;;15.90;8.43;;;-6.80;99.90;;;;;;4884079;29;20074;-70
2022/12/14 03:27:24;;;;;;;14.75;8.27;;;-6.80;99.90;;;;;;4897977;29;20053;-70
2022/12/14 03:29:58;;;;;;;13.40;7.60;;;-6.80;99.90;;;;;;4899395;29;20039;-71
2022/12/14 03:32:27;;;;;;;15.02;8.20;;;-6.80;99.90;;;;;;4897823;29;20036;-70
2022/12/14 03:35:07;;;;;;;13.20;7.25;;;-6.90;99.90;;;;;;4898134;29;20052;-70
2022/12/14 03:37:51;;;;;;;11.77;6.63;;;-6.90;99.90;;;;;;4900057;29;20063;-70
2022/12/14 03:40:17;;;;;;;9.50;5.53;;;-6.90;99.90;;;;;;4898034;29;20055;-70
2022/12/14 03:43:04;;;;;;;8.50;4.90;;;-7.00;99.90;;;;;;4899274;29;20047;-70
2022/12/14 03:45:34;;;;;;;8.23;4.47;;;-6.90;99.90;;;;;;4899222;29;20055;-70
2022/12/14 03:48:12;;;;;;;8.73;4.53;;;-6.90;99.90;;;;;;4899925;29;20370;-70
2022/12/14 03:50:44;;;;;;;10.60;5.45;;;-6.90;99.90;;;;;;4910250;29;20058;-71
2022/12/14 03:53:12;;;;;;;8.85;5.60;;;-7.00;99.90;;;;;;4896402;29;20540;-71
2022/12/14 03:56:09;;;;;;;9.20;4.70;;;-7.00;99.90;;;;;;4898307;29;20141;-71
2022/12/14 03:58:44;;;;;;;9.55;5.22;;;-7.00;99.90;;;;;;4890720;29;20055;-70
2022/12/14 04:01:32;;;;;;;8.10;4.60;;;-7.10;99.90;;;;;;4899619;29;20143;-70
2022/12/14 04:04:07;;;;;;;6.85;4.13;;;-7.10;99.90;;;;;;4895229;29;20845;-70
2022/12/14 04:07:11;;;;;;;7.78;4.40;;;-7.10;99.90;;;;;;4893576;29;20064;-70
2022/12/14 04:18:55;;;;;;;10.73;5.68;;;-7.10;99.90;;;;;;4871796;29;20079;-70
2022/12/14 04:21:31;;;;;;;12.82;6.80;;;-7.10;99.90;;;;;;4894222;29;20059;-70
2022/12/14 04:27:06;;;;;;;11.88;5.90;;;-7.10;99.90;;;;;;4897353;29;20086;-70
2022/12/14 04:32:30;;;;;;;9.75;5.15;;;-7.10;99.90;;;;;;4896278;29;19926;-70
2022/12/14 04:35:04;;;;;;;7.60;4.50;;;-7.20;99.90;;;;;;4894569;29;20047;-70
2022/12/14 04:37:30;;;;;;;9.02;4.30;;;-7.20;99.90;;;;;;4898271;29;20044;-70
2022/12/14 04:40:07;;;;;;;9.35;4.35;;;-7.20;99.90;;;;;;4883462;29;20044;-70
2022/12/14 04:42:47;;;;;;;7.32;4.05;;;-7.30;99.90;;;;;;4879332;29;20052;-70
2022/12/14 04:45:19;;;;;;;8.65;4.28;;;-7.30;99.90;;;;;;4895027;29;20062;-70
2022/12/14 04:48:10;;;;;;;8.90;4.93;;;-7.30;99.90;;;;;;4897378;29;20048;-70
2022/12/14 04:50:46;;;;;;;8.45;4.45;;;-7.30;99.90;;;;;;4896412;29;20421;-69
2022/12/14 04:53:21;;;;;;;9.15;4.82;;;-7.30;99.90;;;;;;4896451;29;20056;-69
2022/12/14 04:56:04;;;;;;;9.68;5.05;;;-7.30;99.90;;;;;;4881131;29;20044;-70
2022/12/14 04:58:31;;;;;;;10.10;4.80;;;-7.40;99.90;;;;;;4880734;29;20127;-71
2022/12/14 05:01:19;;;;;;;9.40;4.72;;;-7.40;99.90;;;;;;4896654;29;20110;-70
2022/12/14 05:04:07;;;;;;;8.35;4.75;;;-7.40;99.90;;;;;;4882579;29;20060;-70
2022/12/14 05:06:39;;;;;;;9.05;4.70;;;-7.40;99.90;;;;;;4895347;29;20524;-69
2022/12/14 05:09:13;;;;;;;8.18;4.25;;;-7.50;99.90;;;;;;4897015;29;20454;-70
2022/12/14 05:11:56;;;;;;;7.07;4.20;;;-7.50;99.90;;;;;;4896740;29;20044;-70
2022/12/14 05:14:46;;;;;;;9.20;4.13;;;-7.50;99.90;;;;;;4914738;29;20071;-70
2022/12/14 05:17:12;;;;;;;8.38;4.13;;;-7.50;99.90;;;;;;4880933;29;20437;-70
2022/12/14 05:19:44;;;;;;;8.27;4.45;;;-7.50;99.90;;;;;;4862977;29;20067;-69
2022/12/14 05:22:10;;;;;;;8.85;4.20;;;-7.60;99.90;;;;;;4897181;29;20052;-70
2022/12/14 05:24:35;;;;;;;8.13;4.30;;;-7.60;99.90;;;;;;4881526;29;20052;-70
2022/12/14 05:27:01;;;;;;;7.22;3.80;;;-7.50;99.90;;;;;;4895277;29;20035;-69
2022/12/14 05:29:27;;;;;;;8.68;4.35;;;-7.50;99.90;;;;;;4896717;29;20103;-70
2022/12/14 05:31:53;;;;;;;8.48;4.00;;;-7.60;99.90;;;;;;4879814;29;20071;-70
2022/12/14 05:34:19;;;;;;;9.45;4.95;;;-7.50;99.90;;;;;;4894084;29;20052;-70
2022/12/14 05:36:44;;;;;;;8.93;4.68;;;-7.60;99.90;;;;;;4897577;29;20067;-70
2022/12/14 05:39:10;;;;;;;7.85;4.25;;;-7.60;99.90;;;;;;4895275;29;20067;-69
2022/12/14 05:41:36;;;;;;;7.25;4.07;;;-7.60;99.90;;;;;;4893681;29;20549;-70
2022/12/14 05:44:01;;;;;;;7.85;4.18;;;-7.60;99.90;;;;;;4912649;29;20052;-69
2022/12/14 05:46:27;;;;;;;8.75;4.43;;;-7.60;99.90;;;;;;4895760;29;20099;-69
2022/12/14 05:48:53;;;;;;;10.15;5.53;;;-7.60;99.90;;;;;;4896024;29;20481;-69
2022/12/14 05:51:19;;;;;;;10.70;6.10;;;-7.60;99.90;;;;;;4881644;29;20445;-70
2022/12/14 05:53:44;;;;;;;9.82;5.25;;;-7.60;99.90;;;;;;4879448;29;20110;-70
2022/12/14 05:56:10;;;;;;;12.98;6.20;;;-7.60;99.90;;;;;;4895623;29;20540;-70
2022/12/14 05:58:36;;;;;;;8.68;4.68;;;-7.60;99.90;;;;;;4895578;29;20044;-70
2022/12/14 06:01:08;;;;;;;7.78;3.90;;;-7.60;99.90;;;;;;4878244;29;20051;-70
2022/12/14 06:03:34;;;;;;;6.82;3.70;;;-7.70;99.90;;;;;;4893347;29;20051;-70
2022/12/14 06:06:05;;;;;;;9.23;4.50;;;-7.70;99.90;;;;;;4879354;29;20611;-70
2022/12/14 06:08:37;;;;;;;9.68;4.97;;;-7.70;99.90;;;;;;4883720;29;20060;-69
2022/12/14 06:11:07;;;;;;;8.77;4.33;;;-7.70;99.90;;;;;;4893088;29;20056;-70
2022/12/14 06:13:34;;;;;;;9.95;5.20;;;-7.70;99.90;;;;;;4887238;29;20354;-69
2022/12/14 06:16:13;;;;;;;10.45;5.32;;;-7.70;99.90;;;;;;4897616;29;20079;-69
2022/12/14 06:18:43;;;;;;;10.93;5.53;;;-7.70;99.90;;;;;;4897194;29;20487;-69
2022/12/14 06:21:09;;;;;;;10.95;5.03;;;-7.80;99.90;;;;;;4894700;29;20044;-70
2022/12/14 06:23:35;;;;;;;9.40;5.50;;;-7.70;99.90;;;;;;4895296;29;20092;-73
2022/12/14 06:26:02;;;;;;;11.20;5.07;;;-7.70;99.90;;;;;;4896788;29;20062;-73
2022/12/14 06:28:28;;;;;;;9.03;4.47;;;-7.70;99.90;;;;;;4896280;29;20147;-73
2022/12/14 06:30:53;;;;;;;12.18;5.05;;;-7.80;99.90;;;;;;4897137;29;20052;-72
2022/12/14 06:33:22;;;;;;;7.88;3.90;;;-7.80;99.90;;;;;;4897860;29;20040;-72
2022/12/14 06:35:48;;;;;;;9.87;4.90;;;-7.80;99.90;;;;;;4876963;29;20044;-71
2022/12/14 06:38:13;;;;;;;7.95;4.07;;;-7.80;99.90;;;;;;4878242;29;20107;-72
2022/12/14 06:40:40;;;;;;;9.70;5.45;;;-7.90;99.90;;;;;;4879628;29;20441;-72
2022/12/14 06:43:05;;;;;;;9.45;4.70;;;-7.90;99.90;;;;;;4896358;29;20044;-72
2022/12/14 06:45:31;;;;;;;10.07;5.10;;;-7.90;99.90;;;;;;4891034;29;20040;-72
2022/12/14 06:47:57;;;;;;;9.88;4.95;;;-7.90;99.90;;;;;;4868787;29;20479;-72
2022/12/14 06:50:24;;;;;;;8.38;4.70;;;-7.90;99.90;;;;;;4877035;29;20044;-73
2022/12/14 06:52:50;;;;;;;9.50;4.93;;;-7.90;99.90;;;;;;4883833;29;20066;-73
2022/12/14 06:55:17;;;;;;;7.90;4.43;;;-7.90;99.90;;;;;;4915832;29;20095;-72
2022/12/14 06:57:42;;;;;;;8.10;4.28;;;-7.90;99.90;;;;;;4898326;29;20059;-73
2022/12/14 07:00:12;;;;;;;9.40;4.80;;;-8.00;99.90;;;;;;4914086;29;20044;-72
2022/12/14 07:02:38;;;;;;;8.35;3.92;;;-8.00;99.90;;;;;;4881364;29;20174;-71
2022/12/14 07:05:05;;;;;;;;;;;-8.00;99.90;;;;;;4895839;29;20085;-71
2022/12/14 07:07:34;;;;;;;9.98;4.60;;;-8.00;99.90;;;;;;4882795;29;19923;-71
2022/12/14 07:10:01;;;;;;;8.73;4.47;;;-8.00;99.90;;;;;;4895246;29;20139;-71
2022/12/14 07:12:27;;;;;;;8.98;4.53;;;-8.00;99.90;;;;;;4896981;29;20044;-72
2022/12/14 07:14:53;;;;;;;8.98;4.35;;;-8.00;99.90;;;;;;4896966;29;20374;-71
2022/12/14 07:17:20;;;;;;;11.45;5.65;;;-8.00;99.90;;;;;;4897038;29;20513;-71
2022/12/14 07:19:45;;;;;;;11.00;5.38;;;-7.90;99.90;;;;;;4897074;29;20430;-72
2022/12/14 07:22:12;;;;;;;9.00;4.53;;;-7.90;99.90;;;;;;4862997;29;20124;-72
2022/12/14 07:24:38;;;;;;;;;;;-7.90;99.90;;;;;;4893152;29;20058;-71
2022/12/14 07:27:03;;;;;;;8.43;4.25;;;-7.90;99.90;;;;;;4879924;29;20307;-71
2022/12/14 07:29:29;;;;;;;10.77;5.40;;;-7.90;99.90;;;;;;4892410;29;20040;-73
2022/12/14 07:31:55;;;;;;;12.93;6.38;;;-7.90;99.90;;;;;;4878583;29;20040;-73
2022/12/14 07:34:21;;;;;;;13.85;6.25;;;-7.90;99.90;;;;;;4895960;29;20056;-73
2022/12/14 07:36:49;;;;;;;12.13;6.20;;;-7.90;99.90;;;;;;4896914;29;20048;-74
2022/12/14 07:39:16;;;;;;;12.38;6.00;;;-8.00;99.90;;;;;;4900513;29;20123;-74
2022/12/14 07:41:43;;;;;;;9.33;5.10;;;-8.00;99.90;;;;;;4898103;29;20049;-74
2022/12/14 07:44:09;;;;;;;9.17;4.83;;;-8.00;99.90;;;;;;4897528;29;20104;-74
2022/12/14 07:46:35;;;;;;;11.27;5.00;;;-8.00;99.90;;;;;;4892450;29;20115;-75
2022/12/14 07:49:01;;;;;;;8.68;4.32;;;-8.10;99.90;;;;;;4900401;29;20401;-75
2022/12/14 07:51:36;;;;;;;9.52;4.53;;;-8.10;99.90;;;;;;4905273;29;20138;-75
2022/12/14 07:54:04;;;;;;;7.80;3.80;;;-8.10;99.90;;;;;;4893571;29;20108;-75
2022/12/14 07:56:37;;;;;;;6.93;3.92;;;-8.10;99.90;;;;;;4916510;29;20095;-75
2022/12/14 07:59:05;;;;;;;6.65;3.50;;;-8.10;99.90;;;;;;4916912;29;20050;-73
2022/12/14 08:01:35;;;;;;;6.93;3.50;;;-8.00;99.90;;;;;;4906344;29;20040;-73
2022/12/14 08:04:11;;;;;;;7.83;3.93;;;-8.00;99.90;;;;;;4897341;29;20048;-74
2022/12/14 08:06:37;;;;;;;7.30;3.67;;;-8.00;99.90;;;;;;4896569;29;20040;-74
2022/12/14 08:09:05;;;;;;;7.03;3.50;;;-8.00;99.90;;;;;;4899224;29;20091;-74
2022/12/14 08:11:31;;;;;;;6.60;3.40;;;-7.90;99.90;;;;;;4898521;29;20122;-74
2022/12/14 08:13:59;;;;;;;7.97;3.70;;;-7.90;99.90;;;;;;4915734;29;20139;-74
2022/12/14 08:16:25;;;;;;;7.13;3.42;;;-7.80;99.90;;;;;;4880766;29;20080;-74
2022/12/14 08:18:55;;;;;;;11.70;5.60;;;-7.80;99.90;;;;;;4899708;29;20095;-74
2022/12/14 08:21:22;;;;;;;10.10;5.15;;;-7.80;99.90;;;;;;4883669;29;20044;-74
2022/12/14 08:23:48;;;;;;;;;;;-7.80;99.90;;;;;;4916740;29;20108;-74
2022/12/14 08:26:14;;;;;;;9.45;4.47;;;-7.70;99.90;;;;;;4898808;29;19938;-74
2022/12/14 08:28:40;;;;;;;8.65;4.40;;;-7.70;99.90;;;;;;4899965;29;20086;-74
2022/12/14 08:31:08;;;;;;;8.75;4.20;;;-7.60;99.90;;;;;;4895558;29;20470;-72
2022/12/14 08:33:35;;;;;;;7.53;3.73;;;-7.60;99.90;;;;;;4889064;29;20059;-72
2022/12/14 08:36:09;;;;;;;7.50;3.85;;;-7.50;99.90;;;;;;4898605;29;20382;-72
2022/12/14 08:38:36;;;;;;;7.82;4.03;;;-7.50;99.90;;;;;;4897658;29;20068;-74
2022/12/14 08:41:13;;;;;;;9.18;4.70;;;-7.40;99.90;;;;;;4896752;29;20064;-74
2022/12/14 08:43:42;;;;;;;9.27;4.43;;;-7.40;99.90;;;;;;4899442;29;20504;-74
2022/12/14 08:46:09;;;;;;;6.68;3.60;;;-7.30;99.90;;;;;;4885321;29;20044;-75
2022/12/14 08:48:37;;;;;;;5.90;3.30;;;-7.20;99.90;;;;;;4915473;29;20112;-74
2022/12/14 08:51:05;;;;;;;6.95;3.65;;;-7.20;99.90;;;;;;4895747;29;20040;-73
2022/12/14 08:53:31;;;;;;;7.80;4.10;;;-7.10;99.90;;;;;;4897294;29;20126;-73
2022/12/14 08:55:57;;;;;;;9.00;4.18;;;-7.10;99.90;;;;;;4882280;29;20126;-73
2022/12/14 08:58:23;;;;;;;7.43;3.92;;;-7.00;99.90;;;;;;4897386;29;20044;-73
2022/12/14 09:00:49;;;;;;;9.10;4.22;;;-6.90;99.90;;;;;;4880639;29;20111;-73
2022/12/14 09:03:15;;;;;;;5.70;3.15;;;-6.90;99.90;;;;;;4880208;29;20509;-73
2022/12/14 09:05:41;;;;;;;5.57;3.22;;;-6.80;99.90;;;;;;4893746;29;20111;-73
2022/12/14 09:08:06;;;;;;;6.35;3.17;;;-6.70;99.90;;;;;;4899300;29;20056;-73
2022/12/14 09:10:32;;;;;;;6.13;2.95;;;-6.60;99.90;;;;;;4883566;29;20040;-73
2022/12/14 09:12:58;;;;;;;8.10;3.72;;;-6.60;99.90;;;;;;4863623;29;20056;-73
2022/12/14 09:15:24;;;;;;;6.03;2.83;;;-6.40;99.90;;;;;;4896690;29;20052;-73
2022/12/14 09:17:50;;;;;;;5.70;3.13;;;-6.30;99.90;;;;;;4881783;29;20056;-73
2022/12/14 09:20:17;;;;;;;6.10;3.42;;;-6.20;99.90;;;;;;4877709;29;20049;-74
2022/12/14 09:22:43;;;;;;;4.78;2.60;;;-6.10;99.90;;;;;;4894171;29;20067;-73
2022/12/14 09:25:09;;;;;;;5.80;2.70;;;-6.00;99.90;;;;;;4896305;29;20044;-73
2022/12/14 09:27:35;;;;;;;4.13;2.20;;;-5.90;99.90;;;;;;4892461;29;20508;-73
2022/12/14 09:30:00;;;;;;;3.45;1.70;;;-5.80;99.90;;;;;;4893380;29;20071;-73
2022/12/14 09:32:29;;;;;;;6.93;3.10;;;-5.70;99.90;;;;;;4911783;29;20060;-72
2022/12/14 09:34:55;;;;;;;6.85;3.50;;;-5.50;99.90;;;;;;4896516;29;20043;-72
2022/12/14 09:37:20;;;;;;;7.75;3.88;;;-5.30;99.90;;;;;;4892861;29;20051;-72
2022/12/14 09:39:46;;;;;;;10.15;5.88;;;-5.10;99.90;;;;;;4891633;29;20087;-73
2022/12/14 09:42:31;;;;;;;10.68;5.63;;;-4.90;99.90;;;;;;4881709;29;20047;-73
2022/12/14 09:45:03;;;;;;;8.98;4.53;;;-4.80;99.90;;;;;;4892147;29;20059;-72
2022/12/14 09:47:40;;;;;;;9.27;5.20;;;-4.70;99.90;;;;;;4897483;29;20055;-73
2022/12/14 09:50:16;;;;;;;7.25;4.00;;;-4.60;99.90;;;;;;4897883;29;20079;-73
2022/12/14 09:52:53;;;;;;;6.90;3.67;;;-4.60;99.90;;;;;;4894052;29;20063;-73
2022/12/14 09:55:25;;;;;;;8.68;4.45;;;-4.50;99.90;;;;;;4888577;29;20048;-73
2022/12/14 09:58:02;;;;;;;9.32;4.88;;;-4.50;99.90;;;;;;4895485;29;20136;-72
2022/12/14 10:00:36;;;;;;;15.07;7.50;;;-4.40;99.90;;;;;;4895762;29;20130;-72
2022/12/14 10:03:24;;;;;;;11.90;6.18;;;-4.30;99.90;;;;;;4895198;29;20207;-73
2022/12/14 10:06:18;;;;;;;11.63;6.20;;;-4.30;99.90;;;;;;4880349;29;20457;-73
2022/12/14 10:09:12;;;;;;;14.27;8.13;;;-4.20;99.90;;;;;;4879559;29;20144;-73
2022/12/14 10:12:10;;;;;;;13.60;7.28;;;-4.10;99.90;;;;;;4895443;29;20537;-73
2022/12/14 10:15:05;;;;;;;12.93;6.90;;;-4.10;99.90;;;;;;4856634;29;20112;-73
2022/12/14 10:17:31;;;;;;;10.63;6.32;;;-3.90;99.90;;;;;;4883153;29;20051;-72
2022/12/14 10:20:03;;;;;;;12.17;6.63;;;-3.90;99.90;;;;;;4879889;29;20494;-73
2022/12/14 10:22:41;;;;;;;12.85;6.55;;;-3.80;99.90;;;;;;4895277;29;20367;-73
2022/12/14 10:25:19;;;;;;;10.85;6.35;;;-3.70;99.90;;;;;;4895541;29;20167;-73
2022/12/14 10:28:03;;;;;;;14.13;7.15;;;-3.60;99.90;;;;;;4881062;29;20171;-73
2022/12/14 10:30:30;;;;;;;12.88;6.78;;;-3.60;99.90;;;;;;4892876;29;20450;-73
2022/12/14 10:33:12;;;;;;;10.77;6.18;;;-3.50;99.90;;;;;;4892970;29;20494;-73
2022/12/14 10:35:51;;;;;;;14.27;8.20;;;-3.50;99.90;;;;;;4894976;29;20092;-72
2022/12/14 10:38:40;;;;;;;12.55;7.07;;;-3.40;99.90;;;;;;4894327;29;20112;-73
2022/12/14 10:41:38;;;;;;;15.07;8.52;;;-3.20;99.90;;;;;;4895637;29;20103;-73
2022/12/14 10:44:46;;;;;;;21.00;10.10;;;-3.00;99.90;;;;;;4896474;29;20048;-74
2022/12/14 10:47:16;;;;;;;18.98;9.93;;;-2.80;99.90;;;;;;4894995;29;20166;-73
2022/12/14 10:49:50;;;;;;;17.50;9.30;;;-2.60;99.90;;;;;;4895367;29;20051;-73
2022/12/14 10:52:22;;;;;;;17.08;9.40;;;-2.50;99.90;;;;;;4891921;29;20048;-74
2022/12/14 10:54:59;;;;;;;19.33;10.38;;;-2.40;99.90;;;;;;4904206;29;20320;-72
2022/12/14 10:57:26;;;;;;;20.25;9.82;;;-2.10;99.90;;;;;;4896682;29;20051;-72
2022/12/14 10:59:53;;;;;;;20.77;11.70;;;-2.00;99.90;;;;;;4896971;29;20067;-72
2022/12/14 11:02:21;;;;;;;22.83;13.25;;;-1.80;99.90;;;;;;4894779;29;20044;-72
2022/12/14 11:04:57;;;;;;;18.25;10.60;;;-1.50;99.90;;;;;;4880921;29;20044;-72
2022/12/14 11:07:38;;;;;;;17.60;10.20;;;-1.20;99.90;;;;;;4910338;29;20064;-72
2022/12/14 11:10:19;;;;;;;22.25;12.63;;;-0.90;99.90;;;;;;4885133;29;20196;-72
2022/12/14 11:13:02;;;;;;;19.55;10.60;;;-0.60;99.90;;;;;;4916040;29;20119;-72
2022/12/14 11:15:40;;;;;;;15.07;9.38;;;-0.40;99.90;;;;;;4897852;29;20103;-72
2022/12/14 11:18:15;;;;;;;17.30;10.43;;;-0.10;99.90;;;;;;4904374;29;20130;-72
2022/12/14 11:20:59;;;;;;;17.52;9.60;;;0.30;99.90;;;;;;4905081;29;20522;-73
2022/12/14 11:23:37;;;;;;;14.18;9.07;;;0.60;99.90;;;;;;4905129;29;20059;-72
2022/12/14 11:26:09;;;;;;;13.55;8.43;;;0.80;99.90;;;;;;4898360;29;20082;-74
2022/12/14 11:28:59;;;;;;;15.98;9.30;;;1.00;99.90;;;;;;4896765;29;20401;-73
2022/12/14 11:31:42;;;;;;;15.57;9.20;;;1.10;99.90;;;;;;4889126;29;20111;-73
2022/12/14 11:34:30;;;;;;;16.70;9.55;;;1.30;99.90;;;;;;4878436;29;20063;-74
2022/12/14 11:37:23;;;;;;;23.30;14.95;;;1.50;99.90;;;;;;4899359;29;20048;-74
2022/12/14 11:39:52;;;;;;;21.10;13.27;;;1.70;99.90;;;;;;4881611;29;20059;-76
2022/12/14 11:42:19;;;;;;;17.63;11.35;;;1.80;99.90;;;;;;4895674;29;20405;-74
2022/12/14 11:44:47;;;;;;;17.30;10.77;;;1.80;99.90;;;;;;4882546;29;20044;-74
2022/12/14 11:47:22;;;;;;;17.67;10.05;;;1.90;99.90;;;;;;4900416;29;20624;-73
2022/12/14 11:49:57;;;;;;;15.55;9.75;;;1.90;99.90;;;;;;4900458;29;20481;-73
2022/12/14 11:52:25;;;;;;;15.73;9.30;;;1.90;99.90;;;;;;4897720;29;20188;-73
2022/12/14 11:54:51;;;;;;;14.60;9.27;;;1.90;99.90;;;;;;4899764;29;20036;-73
2022/12/14 11:57:49;;;;;;;12.27;7.53;;;1.90;99.90;;;;;;4897909;29;20524;-74
2022/12/14 12:00:26;;;;;;;12.63;8.15;;;2.00;99.90;;;;;;4864343;29;20127;-74
2022/12/14 12:03:13;;;;;;;22.75;12.73;;;1.90;99.90;;;;;;4884960;29;20149;-74
2022/12/14 12:05:42;;;;;;;20.42;12.23;;;1.80;99.90;;;;;;4893191;29;20036;-74
2022/12/14 12:08:22;;;;;;;17.52;10.93;;;1.80;99.90;;;;;;4899406;29;20448;-72
2022/12/14 12:10:50;;;;;;;17.80;10.77;;;1.70;99.90;;;;;;4895483;29;20063;-73
2022/12/14 12:13:34;;;;;;;17.00;10.50;;;1.70;99.90;;;;;;4899102;29;20083;-73
2022/12/14 12:16:04;;;;;;;16.50;9.93;;;1.70;99.90;;;;;;4898269;29;20060;-73
2022/12/14 12:18:35;;;;;;;15.65;9.50;;;1.80;99.90;;;;;;4898082;29;20131;-73
2022/12/14 12:21:10;;;;;;;12.13;7.72;;;1.90;99.40;;;;;;4915454;29;20149;-73
2022/12/14 12:23:48;;;;;;;11.95;7.75;;;2.10;99.90;;;;;;4900342;29;20048;-74
2022/12/14 12:26:18;;;;;;;17.00;9.65;;;2.30;99.90;;;;;;4896272;29;20539;-67
2022/12/14 12:29:11;;;;;;;14.73;9.30;;;2.10;99.70;;;;;;4898804;29;20056;-68
2022/12/14 12:31:50;;;;;;;17.60;10.15;;;2.30;99.30;;;;;;4895431;29;20055;-68
2022/12/14 12:34:23;;;;;;;18.77;11.50;;;2.20;99.90;;;;;;4895074;29;20048;-68
2022/12/14 12:36:51;;;;;;;16.13;10.30;;;1.90;99.20;;;;;;4895244;29;20044;-68
2022/12/14 12:39:21;;;;;;;15.43;9.52;;;1.70;99.90;;;;;;4883610;29;20057;-68
2022/12/14 12:42:19;;;;;;;12.20;8.00;;;1.60;99.60;;;;;;4896329;29;20050;-68
2022/12/14 12:45:08;;;;;;;12.30;7.65;;;1.50;99.30;;;;;;4861455;29;20059;-68
2022/12/14 12:47:36;;;;;;;12.43;7.82;;;1.40;98.80;;;;;;4895312;29;20048;-69
2022/12/14 12:50:25;;;;;;;12.80;7.75;;;1.40;98.80;;;;;;4879197;29;20043;-68
2022/12/14 12:52:59;;;;;;;11.10;7.47;;;1.40;98.80;;;;;;4891796;29;20044;-69
2022/12/14 12:55:27;;;;;;;10.52;6.97;;;1.40;98.60;;;;;;4877172;29;20044;-69
2022/12/14 12:57:56;;;;;;;10.23;6.15;;;1.40;98.60;;;;;;4893055;29;20190;-69
2022/12/14 13:00:24;;;;;;;12.85;7.32;;;1.40;97.60;;;;;;4896000;29;20147;-69
2022/12/14 13:03:23;;;;;;;8.88;5.60;;;1.30;97.90;;;;;;4896268;29;20409;-69
2022/12/14 13:05:54;;;;;;;11.20;7.20;;;1.30;97.80;;;;;;4867336;29;20418;-77
2022/12/14 13:08:30;;;;;;;12.13;7.20;;;1.30;97.00;;;;;;4899716;29;20454;-71
2022/12/14 13:10:59;;;;;;;10.85;6.72;;;1.20;99.80;;;;;;4880761;29;20040;-72
2022/12/14 13:13:33;;;;;;;12.15;7.00;;;1.40;99.10;;;;;;4897071;29;20052;-70
2022/12/14 13:16:12;;;;;;;14.25;7.60;;;1.30;99.40;;;;;;4897674;29;20090;-71
2022/12/14 13:18:42;;;;;;;12.23;7.70;;;1.30;99.00;;;;;;4920444;29;20111;-71
2022/12/14 13:21:33;;;;;;;10.40;6.90;;;1.40;99.90;;;;;;4913636;29;20088;-71
2022/12/14 13:24:00;;;;;;;13.73;8.18;;;1.40;98.50;;;;;;4898119;29;20572;-71
2022/12/14 13:26:32;;;;;;;;;;;1.30;99.90;;;;;;4896713;29;20048;-70